createdAt,value
2018-12-29T00:02:17.525Z,29.70
2018-12-29T00:04:58.017Z,33.87
2018-12-29T00:07:38.881Z,36.83
2018-12-29T00:10:20.368Z,32.57
2018-12-29T00:13:00.982Z,36.37
2018-12-29T00:15:42.061Z,38.17
2018-12-29T00:18:22.549Z,35.50
2018-12-29T00:21:03.305Z,32.80
2018-12-29T00:23:46.650Z,35.10
2018-12-29T00:26:27.022Z,35.80
2018-12-29T00:29:07.488Z,34.10
2018-12-29T00:31:48.901Z,30.90
2018-12-29T00:37:44.618Z,33.70
2018-12-29T00:40:25.139Z,36.13
2018-12-29T00:43:06.057Z,34.23
2018-12-29T00:45:50.216Z,31.03
2018-12-29T00:48:31.560Z,32.37
2018-12-29T00:51:12.271Z,32.37
2018-12-29T00:53:53.594Z,32.43
2018-12-29T00:56:34.103Z,33.30
2018-12-29T00:59:14.631Z,29.57
2018-12-29T01:01:55.272Z,32.57
2018-12-29T01:04:36.147Z,30.77
2018-12-29T01:07:17.432Z,31.47
2018-12-29T01:09:58.314Z,31.87
2018-12-29T01:12:39.381Z,34.53
2018-12-29T01:15:20.358Z,30.47
2018-12-29T01:18:01.001Z,28.07
2018-12-29T01:20:42.169Z,34.57
2018-12-29T01:23:23.560Z,27.10
2018-12-29T01:26:04.109Z,35.07
2018-12-29T01:28:44.931Z,33.40
2018-12-29T01:31:25.729Z,32.67
2018-12-29T01:34:06.985Z,29.07
2018-12-29T01:36:48.253Z,37.90
2018-12-29T01:39:30.730Z,33.40
2018-12-29T01:42:11.601Z,31.70
2018-12-29T01:44:52.661Z,33.27
2018-12-29T01:47:33.387Z,34.90
2018-12-29T01:50:14.277Z,34.13
2018-12-29T01:52:55.525Z,29.80
2018-12-29T01:55:36.043Z,32.43
2018-12-29T01:58:16.941Z,35.63
2018-12-29T02:00:57.769Z,37.33
2018-12-29T02:03:38.769Z,30.43
2018-12-29T02:06:19.898Z,32.80
2018-12-29T02:09:00.445Z,34.17
2018-12-29T02:11:39.717Z,32.40
2018-12-29T02:14:27.952Z,35.43
2018-12-29T02:17:16.160Z,31.53
2018-12-29T02:20:04.737Z,33.33
2018-12-29T02:22:53.000Z,33.63
2018-12-29T02:25:41.269Z,33.87
2018-12-29T02:34:32.948Z,33.43
2018-12-29T02:43:01.824Z,33.13
2018-12-29T02:45:42.412Z,32.10
2018-12-29T02:48:23.630Z,31.37
2018-12-29T02:51:04.238Z,27.07
2018-12-29T02:53:44.883Z,26.23
2018-12-29T02:56:25.613Z,30.83
2018-12-29T02:59:06.756Z,28.50
2018-12-29T03:01:47.352Z,29.10
2018-12-29T03:04:27.916Z,28.00
2018-12-29T03:07:08.785Z,28.30
2018-12-29T03:09:49.386Z,30.17
2018-12-29T03:12:29.832Z,32.90
2018-12-29T03:15:10.951Z,28.67
2018-12-29T03:17:52.230Z,30.63
2018-12-29T03:20:32.869Z,31.40
2018-12-29T03:23:13.873Z,33.00
2018-12-29T03:25:54.790Z,33.97
2018-12-29T03:28:35.462Z,32.50
2018-12-29T03:31:16.007Z,31.73
2018-12-29T03:33:57.172Z,31.10
2018-12-29T03:36:37.825Z,30.43
2018-12-29T03:39:18.865Z,33.00
2018-12-29T03:41:59.868Z,30.60
2018-12-29T03:44:40.860Z,31.40
2018-12-29T03:47:22.070Z,33.77
2018-12-29T03:50:03.395Z,33.50
2018-12-29T03:52:43.944Z,35.13
2018-12-29T03:55:24.777Z,32.30
2018-12-29T03:58:05.632Z,33.67
2018-12-29T04:00:46.753Z,31.43
2018-12-29T04:03:26.097Z,37.77
2018-12-29T04:06:14.399Z,35.07
2018-12-29T04:09:21.705Z,31.07
2018-12-29T04:15:39.515Z,29.20
2018-12-29T04:18:27.851Z,30.70
2018-12-29T04:21:16.071Z,28.97
2018-12-29T04:24:04.299Z,29.13
2018-12-29T04:29:46.764Z,27.20
2018-12-29T04:32:34.964Z,28.93
2018-12-29T04:35:23.272Z,29.63
2018-12-29T04:38:11.468Z,31.70
2018-12-29T04:43:53.267Z,29.47
2018-12-29T04:46:41.481Z,31.83
2018-12-29T04:49:29.684Z,27.80
2018-12-29T04:52:17.918Z,24.33
2018-12-29T04:58:13.573Z,28.40
2018-12-29T05:01:01.809Z,32.90
2018-12-29T05:03:42.695Z,27.33
2018-12-29T05:06:23.588Z,30.50
2018-12-29T05:09:05.036Z,29.30
2018-12-29T05:11:45.945Z,31.77
2018-12-29T05:14:27.027Z,34.70
2018-12-29T05:17:07.597Z,29.37
2018-12-29T05:19:47.995Z,32.10
2018-12-29T05:22:28.734Z,30.77
2018-12-29T05:25:09.310Z,30.53
2018-12-29T05:27:50.263Z,31.30
2018-12-29T05:30:31.050Z,28.93
2018-12-29T05:33:12.145Z,29.50
2018-12-29T05:35:53.049Z,28.90
2018-12-29T05:38:33.661Z,26.97
2018-12-29T05:41:14.625Z,26.47
2018-12-29T05:43:55.401Z,27.20
2018-12-29T05:46:36.680Z,26.37
2018-12-29T05:49:17.066Z,29.67
2018-12-29T05:51:58.034Z,28.23
2018-12-29T05:54:38.933Z,25.23
2018-12-29T05:57:19.458Z,29.60
2018-12-29T05:59:58.683Z,28.30
2018-12-29T06:02:46.927Z,29.63
2018-12-29T06:08:42.536Z,30.50
2018-12-29T06:11:30.745Z,26.33
2018-12-29T06:14:18.967Z,26.10
2018-12-29T06:17:07.238Z,28.23
2018-12-29T06:19:55.556Z,22.10
2018-12-29T06:22:43.824Z,27.23
2018-12-29T06:25:32.125Z,22.87
2018-12-29T06:31:27.780Z,23.63
2018-12-29T06:34:16.022Z,24.07
2018-12-29T06:40:11.628Z,24.47
2018-12-29T06:49:02.477Z,25.97
2018-12-29T06:57:40.155Z,27.93
2018-12-29T07:06:30.102Z,28.30
2018-12-29T07:09:18.273Z,27.90
2018-12-29T07:12:18.074Z,29.00
2018-12-29T07:14:56.429Z,26.40
2018-12-29T07:17:44.683Z,28.63
2018-12-29T07:20:32.881Z,28.67
2018-12-29T07:23:21.150Z,29.83
2018-12-29T07:29:16.882Z,31.00
2018-12-29T07:32:05.093Z,29.40
2018-12-29T07:34:53.301Z,27.87
2018-12-29T07:37:41.529Z,29.13
2018-12-29T07:40:29.803Z,28.53
2018-12-29T07:43:18.037Z,27.90
2018-12-29T07:46:06.269Z,30.83
2018-12-29T07:51:53.193Z,30.20
2018-12-29T07:57:27.685Z,28.83
2018-12-29T08:00:08.882Z,34.50
2018-12-29T08:02:49.937Z,30.23
2018-12-29T08:05:32.420Z,30.00
2018-12-29T08:08:13.602Z,29.87
2018-12-29T08:10:54.384Z,29.13
2018-12-29T08:13:35.438Z,32.20
2018-12-29T08:16:16.313Z,27.10
2018-12-29T08:18:57.226Z,29.57
2018-12-29T08:21:37.798Z,28.40
2018-12-29T08:24:18.713Z,28.67
2018-12-29T08:26:59.839Z,28.50
2018-12-29T08:29:40.906Z,28.60
2018-12-29T08:32:21.883Z,31.60
2018-12-29T08:35:02.685Z,25.37
2018-12-29T08:37:43.175Z,33.93
2018-12-29T08:40:23.796Z,32.30
2018-12-29T08:43:04.538Z,32.03
2018-12-29T08:45:45.393Z,28.10
2018-12-29T08:48:26.168Z,30.90
2018-12-29T08:51:06.962Z,28.63
2018-12-29T08:53:47.990Z,32.47
2018-12-29T08:56:29.048Z,31.13
2018-12-29T08:59:09.577Z,37.40
2018-12-29T09:01:50.413Z,33.50
2018-12-29T09:04:31.362Z,31.00
2018-12-29T09:07:11.836Z,30.70
2018-12-29T09:09:52.671Z,37.53
2018-12-29T09:12:33.363Z,30.33
2018-12-29T09:15:14.217Z,32.60
2018-12-29T09:17:55.080Z,32.30
2018-12-29T09:20:36.054Z,30.63
2018-12-29T09:23:17.053Z,31.73
2018-12-29T09:26:00.038Z,31.97
2018-12-29T09:28:40.822Z,29.73
2018-12-29T09:31:22.166Z,29.27
2018-12-29T09:34:03.034Z,32.67
2018-12-29T09:36:44.791Z,31.23
2018-12-29T09:39:25.411Z,29.20
2018-12-29T09:42:06.220Z,32.70
2018-12-29T09:44:46.858Z,30.10
2018-12-29T09:47:27.537Z,29.87
2018-12-29T09:50:08.087Z,29.27
2018-12-29T09:52:49.088Z,28.27
2018-12-29T09:55:29.873Z,30.80
2018-12-29T09:58:10.484Z,30.33
2018-12-29T10:00:51.644Z,27.27
2018-12-29T10:03:32.138Z,28.87
2018-12-29T10:06:12.875Z,29.70
2018-12-29T10:08:53.696Z,29.60
2018-12-29T10:11:34.231Z,29.53
2018-12-29T10:14:14.667Z,29.63
2018-12-29T10:16:55.627Z,31.77
2018-12-29T10:19:36.604Z,31.97
2018-12-29T10:22:17.336Z,27.67
2018-12-29T10:25:00.983Z,30.40
2018-12-29T10:27:41.941Z,31.30
2018-12-29T10:30:22.801Z,29.13
2018-12-29T10:33:03.701Z,27.03
2018-12-29T10:35:44.829Z,27.30
2018-12-29T10:38:25.593Z,26.60
2018-12-29T10:41:06.606Z,28.43
2018-12-29T10:43:47.081Z,30.43
2018-12-29T10:46:28.049Z,27.60
2018-12-29T10:49:08.817Z,27.10
2018-12-29T10:51:50.168Z,28.27
2018-12-29T10:54:30.905Z,29.40
2018-12-29T10:57:11.902Z,26.00
2018-12-29T10:59:52.765Z,30.03
2018-12-29T11:02:33.180Z,29.83
2018-12-29T11:05:14.038Z,24.50
2018-12-29T11:07:55.117Z,25.33
2018-12-29T11:10:36.193Z,26.50
2018-12-29T11:13:17.234Z,27.07
2018-12-29T11:16:00.172Z,29.90
2018-12-29T11:18:40.753Z,26.60
2018-12-29T11:21:21.612Z,30.60
2018-12-29T11:24:02.654Z,29.87
2018-12-29T11:26:43.648Z,29.63
2018-12-29T11:29:24.560Z,24.27
2018-12-29T11:32:05.244Z,29.17
2018-12-29T11:34:46.548Z,24.23
2018-12-29T11:37:27.449Z,28.43
2018-12-29T11:40:08.377Z,25.43
2018-12-29T11:42:49.029Z,36.30
2018-12-29T11:45:30.148Z,28.40
2018-12-29T11:48:11.477Z,27.67
2018-12-29T11:50:51.865Z,29.60
2018-12-29T11:53:33.046Z,27.10
2018-12-29T11:56:13.517Z,26.37
2018-12-29T11:58:54.232Z,24.87
2018-12-29T12:01:35.112Z,26.60
2018-12-29T12:04:15.934Z,25.03
2018-12-29T12:06:56.859Z,32.27
2018-12-29T12:09:37.757Z,28.80
2018-12-29T12:12:18.702Z,27.37
2018-12-29T12:14:59.584Z,30.53
2018-12-29T12:17:40.313Z,30.70
2018-12-29T12:20:20.876Z,29.97
2018-12-29T12:23:01.853Z,26.10
2018-12-29T12:25:42.600Z,28.00
2018-12-29T12:28:23.803Z,25.10
2018-12-29T12:31:04.781Z,28.13
2018-12-29T12:33:44.285Z,27.67
2018-12-29T12:36:32.631Z,28.97
2018-12-29T12:54:04.040Z,29.63
2018-12-29T13:02:46.365Z,30.03
2018-12-29T13:05:27.512Z,35.40
2018-12-29T13:08:08.060Z,27.60
2018-12-29T13:10:49.388Z,30.93
2018-12-29T13:13:30.053Z,28.73
2018-12-29T13:16:11.693Z,28.50
2018-12-29T13:18:52.873Z,30.63
2018-12-29T13:21:34.198Z,26.90
2018-12-29T13:24:14.704Z,25.90
2018-12-29T13:26:55.611Z,27.60
2018-12-29T13:29:36.336Z,27.57
2018-12-29T13:32:17.283Z,27.13
2018-12-29T13:34:58.192Z,36.13
2018-12-29T13:37:39.097Z,28.70
2018-12-29T13:40:19.924Z,26.83
2018-12-29T13:43:00.582Z,28.60
2018-12-29T13:45:41.224Z,28.47
2018-12-29T13:48:22.422Z,32.30
2018-12-29T13:51:04.022Z,28.47
2018-12-29T13:53:45.098Z,30.90
2018-12-29T13:56:26.020Z,28.30
2018-12-29T13:59:06.934Z,26.80
2018-12-29T14:01:47.911Z,27.93
2018-12-29T14:04:29.623Z,29.77
2018-12-29T14:07:10.473Z,29.60
2018-12-29T14:09:51.905Z,30.90
2018-12-29T14:12:33.162Z,30.70
2018-12-29T14:15:13.772Z,33.37
2018-12-29T14:17:53.193Z,33.70
2018-12-29T14:38:19.732Z,28.23
2018-12-29T14:44:17.279Z,27.93
2018-12-29T14:46:53.056Z,28.20
2018-12-29T14:52:34.825Z,29.67
2018-12-29T14:55:23.043Z,31.83
2018-12-29T14:58:02.500Z,34.00
2018-12-29T15:06:38.426Z,29.63
2018-12-29T15:09:26.670Z,25.47
2018-12-29T15:15:08.489Z,32.53
2018-12-29T15:17:56.812Z,33.73
2018-12-29T15:23:54.169Z,33.83
2018-12-29T15:26:42.515Z,31.97
2018-12-29T15:32:39.964Z,35.10
2018-12-29T15:38:37.369Z,31.83
2018-12-29T15:56:15.060Z,32.77
2018-12-29T15:58:56.504Z,33.30
2018-12-29T16:01:39.756Z,33.60
2018-12-29T16:04:20.893Z,33.83
2018-12-29T16:07:01.697Z,35.33
2018-12-29T16:09:42.776Z,32.53
2018-12-29T16:12:24.105Z,35.53
2018-12-29T16:15:05.681Z,37.20
2018-12-29T16:17:46.950Z,30.43
2018-12-29T16:20:28.118Z,35.30
2018-12-29T16:23:09.799Z,35.43
2018-12-29T16:25:50.621Z,35.50
2018-12-29T16:28:31.365Z,34.07
2018-12-29T16:31:12.296Z,37.20
2018-12-29T16:33:53.845Z,30.23
2018-12-29T16:36:35.422Z,32.13
2018-12-29T16:39:16.768Z,32.93
2018-12-29T16:41:58.146Z,31.37
2018-12-29T16:44:39.150Z,32.17
2018-12-29T16:47:19.884Z,30.33
2018-12-29T16:50:01.240Z,28.43
2018-12-29T16:52:42.341Z,27.00
2018-12-29T16:55:23.276Z,34.60
2018-12-29T16:58:04.026Z,30.57
2018-12-29T17:00:44.852Z,31.97
2018-12-29T17:03:25.704Z,31.33
2018-12-29T17:06:09.658Z,31.37
2018-12-29T17:08:50.420Z,29.80
2018-12-29T17:11:32.824Z,31.53
2018-12-29T17:14:13.670Z,31.27
2018-12-29T17:16:54.255Z,33.10
2018-12-29T17:19:34.940Z,30.20
2018-12-29T17:22:15.629Z,33.03
2018-12-29T17:24:56.507Z,31.07
2018-12-29T17:27:37.196Z,34.80
2018-12-29T17:30:18.448Z,32.33
2018-12-29T17:32:59.389Z,34.00
2018-12-29T17:35:38.936Z,34.93
2018-12-29T17:38:27.195Z,33.47
2018-12-29T17:47:17.162Z,32.47
2018-12-29T17:56:06.932Z,32.97
2018-12-29T17:58:55.204Z,31.80
2018-12-29T18:04:43.352Z,33.67
2018-12-29T18:07:24.645Z,33.37
2018-12-29T18:10:06.003Z,30.00
2018-12-29T18:12:46.752Z,34.77
2018-12-29T18:15:28.044Z,31.13
2018-12-29T18:18:08.674Z,34.90
2018-12-29T18:20:50.176Z,33.13
2018-12-29T18:23:30.669Z,36.83
2018-12-29T18:26:11.255Z,36.30
2018-12-29T18:28:52.022Z,39.77
2018-12-29T18:31:32.542Z,33.00
2018-12-29T18:34:11.997Z,40.10
2018-12-29T18:37:00.389Z,31.73
2018-12-29T18:39:48.704Z,35.00
2018-12-29T18:48:44.092Z,44.20
2018-12-29T18:51:32.335Z,32.23
2018-12-29T18:54:20.750Z,30.93
2018-12-29T18:57:09.240Z,35.47
2018-12-29T18:59:50.453Z,34.67
2018-12-29T19:02:31.322Z,30.30
2018-12-29T19:05:12.737Z,30.90
2018-12-29T19:07:53.374Z,30.07
2018-12-29T19:10:34.196Z,32.17
2018-12-29T19:13:15.162Z,29.07
2018-12-29T19:15:56.397Z,31.90
2018-12-29T19:18:41.457Z,31.97
2018-12-29T19:30:20.182Z,28.20
2018-12-29T19:33:10.249Z,30.20
2018-12-29T19:35:58.556Z,27.63
2018-12-29T19:38:46.902Z,26.97
2018-12-29T19:44:44.213Z,28.73
2018-12-29T19:56:34.882Z,26.00
2018-12-29T19:59:24.807Z,27.93
2018-12-29T20:05:13.148Z,26.00
2018-12-29T20:07:53.984Z,24.80
2018-12-29T20:10:34.938Z,32.00
2018-12-29T20:13:16.673Z,24.80
2018-12-29T20:15:57.225Z,27.60
2018-12-29T20:18:38.032Z,25.33
2018-12-29T20:21:17.398Z,27.43
2018-12-29T20:38:36.539Z,25.00
2018-12-29T20:41:24.772Z,26.60
2018-12-29T20:44:33.779Z,26.47
2018-12-29T20:47:22.190Z,26.00
2018-12-29T20:50:11.076Z,29.57
2018-12-29T20:53:00.507Z,25.10
2018-12-29T20:55:48.896Z,23.50
2018-12-29T21:10:26.204Z,24.07
2018-12-29T21:16:08.140Z,26.53
2018-12-29T21:27:53.871Z,23.60
2018-12-29T21:36:43.393Z,21.53
2018-12-29T21:42:39.107Z,25.13
2018-12-29T21:45:27.553Z,23.20
2018-12-29T21:48:15.951Z,30.07
2018-12-29T21:54:11.701Z,27.53
2018-12-29T22:05:49.245Z,22.70
2018-12-29T22:08:30.336Z,25.63
2018-12-29T22:11:11.127Z,22.20
2018-12-29T22:13:51.852Z,26.00
2018-12-29T22:16:32.697Z,24.97
2018-12-29T22:19:13.929Z,24.83
2018-12-29T22:21:55.128Z,28.67
2018-12-29T22:24:35.877Z,23.80
2018-12-29T22:27:17.280Z,26.10
2018-12-29T22:29:57.923Z,20.47
2018-12-29T22:32:39.131Z,22.43
2018-12-29T22:35:20.450Z,26.70
2018-12-29T22:38:00.881Z,21.30
2018-12-29T22:40:41.516Z,31.67
2018-12-29T22:43:22.214Z,25.83
2018-12-29T22:46:01.594Z,23.63
2018-12-29T22:48:50.269Z,21.67
2018-12-29T22:51:38.509Z,20.73
2018-12-29T22:54:26.898Z,20.10
2018-12-29T23:00:41.993Z,19.93
2018-12-29T23:03:30.360Z,22.67
2018-12-29T23:06:10.913Z,21.97
2018-12-29T23:08:51.613Z,18.80
2018-12-29T23:11:32.907Z,23.67
2018-12-29T23:14:15.750Z,20.27
2018-12-29T23:16:56.623Z,21.63
2018-12-29T23:19:37.667Z,18.07
2018-12-29T23:22:18.252Z,19.83
2018-12-29T23:24:59.002Z,21.33
2018-12-29T23:27:39.693Z,21.43
2018-12-29T23:30:20.737Z,21.30
2018-12-29T23:33:02.430Z,20.30
2018-12-29T23:35:43.388Z,16.67
2018-12-29T23:38:24.608Z,16.70
2018-12-29T23:41:05.104Z,19.27
2018-12-29T23:43:46.328Z,19.47
2018-12-29T23:46:27.191Z,19.70
2018-12-29T23:49:07.913Z,19.60
2018-12-29T23:51:48.631Z,19.00
2018-12-29T23:54:29.337Z,20.47
2018-12-29T23:57:10.114Z,20.90
2018-12-29T23:59:51.504Z,22.73
